Bei Facebook empfehlenBei Twitter postenGoogle plusPinterest

Das Wetter im Erzgebirge am 16.05.2016

Wetter und Klima am 16.05.2016 Holzhau im Erzgebirge (630m ü.NN)
Letzte gemessene Temperatur und Uhrzeit der Messung23:45:00 Uhr1.60 °C
Temperatur (Maximum / Höchstwert) und Uhrzeit der Messung16:15:00 Uhr10.20 °C
Temperatur (Minimum / Tiefstwert) und Uhrzeit der Messung22:15:001.40 °C
Errechneter Absolutwert der Temperaturschwankungen zwischen Tmin und Tmax des Tages8.80 K
Errechnete Tagesmitteltemperatur4.72813 °C
Gesamt - Niederschlag des Tages (in flüssiger Form)1.55 Liter / m²
Luftdruck (Maximum / Höchstwert) und Zeitpunkt der Messung10:30:00 Uhr1013.10 hPa
Luftdruck (Minimum / Tiefstwert) und Zeitpunkt der Messung18:45:00 Uhr1011.70 hPa
Errechneter Absolutwert der Luftdruckschwankungen des Tages1.40 hPa
Höchste gemessene Windgeschwindigkeit und Uhrzeit der Messung23:45:00 Uhr0.00 km/h
Errechnete Windhäufigkeit in Relation zu den Messwerten des Tages0.00000 %
Niedrigste Windkühle (Windchill) und Zeitpunkt der Messung22:15:00 Uhr1.40 °C
Taupunkt (Maximum / Höchstwert) und Uhrzeit der Messung11:45:00 Uhr5.30 °C
Taupunkt (Minimum / Tiefstwert) und Uhrzeit der Messung21:00:00-1.60 °C
Anzahl der automatisch eingelesenen Messwerte 96

Detaillierte Wetter- und Klima- Messwerte für den 16.05.2016 in Holzhau im Erzgebirge (630m ü.NN)
ZeitTemperaturLuftdruckRel. LuftfeuchteWindWindrichtungWindchillTaupunktNiederschlag l/m²
23:45:001.60 °C1012.70 hPa85.00 %-0.60 °C1.55
23:30:001.60 °C1012.70 hPa85.00 %-0.60 °C1.55
23:15:001.60 °C1012.90 hPa84.00 %-0.80 °C1.55
23:00:001.60 °C1012.80 hPa84.00 %-0.80 °C1.55
22:45:001.60 °C1012.60 hPa84.00 %-0.80 °C1.55
22:30:001.50 °C1012.80 hPa83.00 %-1.10 °C1.55
22:15:001.40 °C1012.80 hPa83.00 %-1.20 °C1.55
22:00:001.50 °C1012.70 hPa82.00 %-1.20 °C1.55
21:45:001.60 °C1012.60 hPa81.00 %-1.30 °C1.55
21:30:001.80 °C1012.90 hPa80.00 %-1.30 °C1.55
21:15:001.70 °C1012.70 hPa80.00 %-1.40 °C1.55
21:00:001.80 °C1012.80 hPa78.00 %-1.60 °C1.55
20:45:002.30 °C1012.60 hPa77.00 %-1.30 °C1.55
20:30:002.90 °C1012.60 hPa76.00 %-0.90 °C1.55
20:15:003.60 °C1012.30 hPa75.00 %-0.40 °C1.55
20:00:004.10 °C1012.30 hPa73.00 %-0.30 °C1.55
19:45:004.60 °C1012.10 hPa72.00 %0.00 °C1.55
19:30:005.40 °C1011.90 hPa71.00 %0.60 °C1.55
19:15:005.90 °C1011.80 hPa69.00 %0.70 °C1.55
19:00:006.40 °C1011.80 hPa69.00 %1.10 °C1.55
18:45:007.10 °C1011.70 hPa68.00 %1.60 °C1.55
18:30:007.40 °C1011.70 hPa68.00 %1.90 °C1.55
18:15:007.20 °C1011.90 hPa68.00 %1.70 °C1.55
18:00:007.10 °C1011.70 hPa68.00 %1.60 °C1.55
17:45:007.80 °C1011.90 hPa66.00 %1.90 °C1.55
17:30:008.40 °C1011.80 hPa68.00 %2.80 °C1.55
17:15:008.10 °C1012.10 hPa68.00 %2.60 °C1.55
17:00:008.80 °C1011.90 hPa66.00 %2.80 °C1.55
16:45:009.40 °C1011.70 hPa67.00 %3.60 °C1.55
16:30:009.60 °C1011.90 hPa67.00 %3.80 °C1.55
16:15:0010.20 °C1011.80 hPa69.00 %4.80 °C1.55
16:00:009.20 °C1012.00 hPa70.00 %4.00 °C1.55
15:45:009.20 °C1012.10 hPa72.00 %4.40 °C1.55
15:30:008.40 °C1012.20 hPa74.00 %4.00 °C1.55
15:15:007.60 °C1012.40 hPa77.00 %3.80 °C1.55
15:00:007.00 °C1012.40 hPa78.00 %3.40 °C1.55
14:45:006.10 °C1012.50 hPa78.00 %2.60 °C1.55
14:30:005.40 °C1012.60 hPa76.00 %1.50 °C1.55
14:15:006.10 °C1012.80 hPa74.00 %1.80 °C1.55
14:00:007.20 °C1012.70 hPa74.00 %2.90 °C1.55
13:45:008.60 °C1012.70 hPa74.00 %4.20 °C1.55
13:30:007.30 °C1012.40 hPa76.00 %3.40 °C1.55
13:15:006.20 °C1012.50 hPa77.00 %2.50 °C1.55
13:00:005.60 °C1012.90 hPa77.00 %1.90 °C1.55
12:45:005.30 °C1013.00 hPa74.00 %1.10 °C1.55
12:30:007.80 °C1013.00 hPa71.00 %2.90 °C1.55
12:15:008.80 °C1012.60 hPa75.00 %4.60 °C1.55
12:00:008.40 °C1012.70 hPa77.00 %4.60 °C1.55
11:45:008.70 °C1012.70 hPa79.00 %5.30 °C1.55
11:30:007.10 °C1012.70 hPa84.00 %4.60 °C1.55
11:15:005.10 °C1012.90 hPa83.00 %2.50 °C1.03
11:00:003.90 °C1013.00 hPa80.00 %0.80 °C0.52
10:45:004.10 °C1012.90 hPa79.00 %0.80 °C0.52
10:30:005.90 °C1013.10 hPa76.00 %2.00 °C0.52
10:15:006.90 °C1012.60 hPa78.00 %3.30 °C0.52
10:00:006.70 °C1012.50 hPa81.00 %3.70 °C0.52
09:45:005.40 °C1012.60 hPa80.00 %2.20 °C0.52
09:30:005.60 °C1012.70 hPa82.00 %2.80 °C0.52
09:15:005.80 °C1012.50 hPa82.00 %3.00 °C0.52
09:00:006.10 °C1012.40 hPa85.00 %3.80 °C0.52
08:45:005.90 °C1012.40 hPa86.00 %3.70 °C0.52
08:30:005.90 °C1012.50 hPa89.00 %4.20 °C0.52
08:15:004.60 °C1012.60 hPa89.00 %2.90 °C0.52
08:00:004.40 °C1012.80 hPa90.00 %2.90 °C0.52
07:45:004.10 °C1012.50 hPa91.00 %2.80 °C0.52
07:30:003.80 °C1012.40 hPa91.00 %2.50 °C0.52
07:15:003.80 °C1012.40 hPa92.00 %2.60 °C0.52
07:00:003.60 °C1012.40 hPa92.00 %2.40 °C0.52
06:45:003.10 °C1012.40 hPa92.00 %1.90 °C0.52
06:30:002.90 °C1012.30 hPa92.00 %1.70 °C0.52
06:15:002.80 °C1012.20 hPa92.00 %1.60 °C0.52
06:00:002.70 °C1012.10 hPa92.00 %1.50 °C 
05:45:002.60 °C1012.10 hPa92.00 %1.40 °C 
05:30:002.60 °C1012.00 hPa92.00 %1.40 °C 
05:15:002.40 °C1012.10 hPa92.00 %1.20 °C 
05:00:002.40 °C1012.10 hPa92.00 %1.20 °C 
04:45:002.20 °C1012.00 hPa92.00 %1.00 °C 
04:30:002.10 °C1011.90 hPa91.00 %0.80 °C 
04:15:002.30 °C1011.90 hPa91.00 %1.00 °C 
04:00:002.70 °C1011.90 hPa91.00 %1.40 °C 
03:45:002.80 °C1012.00 hPa91.00 %1.50 °C 
03:30:002.80 °C1011.70 hPa91.00 %1.50 °C 
03:15:002.90 °C1012.00 hPa91.00 %1.60 °C 
03:00:002.90 °C1011.90 hPa91.00 %1.60 °C 
02:45:002.90 °C1011.80 hPa91.00 %1.60 °C 
02:30:002.90 °C1011.90 hPa91.00 %1.60 °C 
02:15:002.90 °C1011.70 hPa91.00 %1.60 °C 
02:00:002.90 °C1011.70 hPa91.00 %1.60 °C 
01:45:002.90 °C1011.90 hPa91.00 %1.60 °C 
01:30:002.90 °C1012.00 hPa91.00 %1.60 °C 
01:15:002.90 °C1011.90 hPa91.00 %1.60 °C 
01:00:002.90 °C1011.90 hPa91.00 %1.60 °C 
00:45:002.90 °C1011.90 hPa91.00 %1.60 °C 
00:30:002.90 °C1012.20 hPa91.00 %1.60 °C 
00:15:002.80 °C1012.30 hPa91.00 %1.50 °C 
00:00:002.70 °C1012.10 hPa91.00 %1.40 °C 

Permanenter Link zu dieser Seite: Wetter im Erzgebirge am 16.05.2016
Performance-Info: Die Erstellung der Seite / Statistik(en) / Tabelle(n) erforderte 5 Datenbankserver-Abfrage(n) und dauerte 121 Millisekunden. (Dieser Messwert ist von der Gesamt-Auslastung des Servers abhängig.)
Erzgebirge - Wetter | Erzgebirge - Wetter (Mobilgeräte) | Komplette Klimadatenbank